createdAt,value
2019-05-12T00:00:18.433Z,55.18
2019-05-12T00:01:18.713Z,54.67
2019-05-12T00:02:18.156Z,54.67
2019-05-12T00:03:18.919Z,55.38
2019-05-12T00:04:18.883Z,54.77
2019-05-12T00:05:18.665Z,55.58
2019-05-12T00:06:18.088Z,54.46
2019-05-12T00:07:18.202Z,55.49
2019-05-12T00:08:18.907Z,55.99
2019-05-12T00:09:18.803Z,55.99
2019-05-12T00:10:18.194Z,55.58
2019-05-12T00:11:18.064Z,55.99
2019-05-12T00:12:18.513Z,56.61
2019-05-12T00:13:19.049Z,56.10
2019-05-12T00:14:18.009Z,56.10
2019-05-12T00:15:19.219Z,55.69
2019-05-12T00:16:17.977Z,56.40
2019-05-12T00:17:18.859Z,56.30
2019-05-12T00:18:18.227Z,56.17
2019-05-12T00:19:18.044Z,56.81
2019-05-12T00:20:18.493Z,56.92
2019-05-12T00:21:18.054Z,56.61
2019-05-12T00:22:18.173Z,56.30
2019-05-12T00:23:25.082Z,56.61
2019-05-12T00:24:18.931Z,56.81
2019-05-12T00:25:18.208Z,57.43
2019-05-12T00:26:18.656Z,57.32
2019-05-12T00:27:18.008Z,57.43
2019-05-12T00:28:18.039Z,57.32
2019-05-12T00:29:18.605Z,57.43
2019-05-12T00:30:18.491Z,57.93
2019-05-12T00:31:18.857Z,57.32
2019-05-12T00:32:18.032Z,57.84
2019-05-12T00:33:18.052Z,57.84
2019-05-12T00:34:18.376Z,57.45
2019-05-12T00:35:18.225Z,57.84
2019-05-12T00:36:18.574Z,57.84
2019-05-12T00:37:18.591Z,57.84
2019-05-12T00:38:17.850Z,57.86
2019-05-12T00:39:19.058Z,57.63
2019-05-12T00:40:19.122Z,58.25
2019-05-12T00:41:18.222Z,58.55
2019-05-12T00:42:18.310Z,58.75
2019-05-12T00:43:18.811Z,58.27
2019-05-12T00:44:18.382Z,58.65
2019-05-12T00:45:18.129Z,58.65
2019-05-12T00:46:18.306Z,58.14
2019-05-12T00:47:18.763Z,58.14
2019-05-12T00:48:17.957Z,58.17
2019-05-12T00:49:18.660Z,58.34
2019-05-12T00:50:18.407Z,58.14
2019-05-12T00:51:18.107Z,59.27
2019-05-12T00:52:18.656Z,59.67
2019-05-12T00:53:18.901Z,58.86
2019-05-12T00:54:17.910Z,59.50
2019-05-12T00:55:18.434Z,59.09
2019-05-12T00:56:17.762Z,59.19
2019-05-12T00:57:18.167Z,59.47
2019-05-12T00:58:19.535Z,59.27
2019-05-12T00:59:19.005Z,59.47
2019-05-12T01:00:17.946Z,59.16
2019-05-12T01:01:18.409Z,58.75
2019-05-12T01:02:18.292Z,60.08
2019-05-12T01:03:18.939Z,59.57
2019-05-12T01:04:17.696Z,59.37
2019-05-12T01:05:17.791Z,59.88
2019-05-12T01:06:17.869Z,59.57
2019-05-12T01:07:18.347Z,60.49
2019-05-12T01:08:18.669Z,59.78
2019-05-12T01:09:17.732Z,60.42
2019-05-12T01:10:17.965Z,60.69
2019-05-12T01:11:17.817Z,60.49
2019-05-12T01:12:18.103Z,60.80
2019-05-12T01:13:18.733Z,60.28
2019-05-12T01:14:18.663Z,60.39
2019-05-12T01:15:17.757Z,60.60
2019-05-12T01:16:18.392Z,60.90
2019-05-12T01:17:17.825Z,60.80
2019-05-12T01:18:18.097Z,60.83
2019-05-12T01:19:18.604Z,60.83
2019-05-12T01:20:17.868Z,61.44
2019-05-12T01:21:18.450Z,61.65
2019-05-12T01:22:18.691Z,61.03
2019-05-12T01:23:24.269Z,60.83
2019-05-12T01:24:18.773Z,61.75
2019-05-12T01:25:17.657Z,61.67
2019-05-12T01:26:17.937Z,61.95
2019-05-12T01:27:18.077Z,62.29
2019-05-12T01:28:18.400Z,62.05
2019-05-12T01:29:17.772Z,62.36
2019-05-12T01:30:18.049Z,62.57
2019-05-12T01:31:18.015Z,62.90
2019-05-12T01:32:18.283Z,63.00
2019-05-12T01:33:18.466Z,63.51
2019-05-12T01:34:18.184Z,62.59
2019-05-12T01:35:18.526Z,62.90
2019-05-12T01:36:18.119Z,63.21
2019-05-12T01:37:18.386Z,63.31
2019-05-12T01:38:18.255Z,63.21
2019-05-12T01:39:18.777Z,63.31
2019-05-12T01:40:19.067Z,63.21
2019-05-12T01:41:17.998Z,63.41
2019-05-12T01:42:18.110Z,63.62
2019-05-12T01:43:20.689Z,62.80
2019-05-12T01:44:18.409Z,62.90
2019-05-12T01:45:18.035Z,63.51
2019-05-12T01:46:18.156Z,63.51
2019-05-12T01:47:18.731Z,63.51
2019-05-12T01:48:18.380Z,63.72
2019-05-12T01:49:18.729Z,63.41
2019-05-12T01:50:17.779Z,63.31
2019-05-12T01:51:17.783Z,63.51
2019-05-12T01:52:17.819Z,63.51
2019-05-12T01:53:18.111Z,63.41
2019-05-12T01:54:18.893Z,63.51
2019-05-12T01:55:18.572Z,63.62
2019-05-12T01:56:18.214Z,63.31
2019-05-12T01:57:18.789Z,63.62
2019-05-12T01:58:19.463Z,63.41
2019-05-12T01:59:18.512Z,63.31
2019-05-12T02:00:18.296Z,63.82
2019-05-12T02:01:18.504Z,64.54
2019-05-12T02:02:17.830Z,64.64
2019-05-12T02:03:17.858Z,64.54
2019-05-12T02:04:18.128Z,64.54
2019-05-12T02:05:18.338Z,64.33
2019-05-12T02:06:18.426Z,63.92
2019-05-12T02:07:18.531Z,64.54
2019-05-12T02:08:18.505Z,64.33
2019-05-12T02:09:18.694Z,64.54
2019-05-12T02:10:17.961Z,64.03
2019-05-12T02:11:18.268Z,63.82
2019-05-12T02:12:18.267Z,64.64
2019-05-12T02:13:18.265Z,64.23
2019-05-12T02:14:18.321Z,64.64
2019-05-12T02:15:18.362Z,64.64
2019-05-12T02:16:18.749Z,64.13
2019-05-12T02:17:17.967Z,64.54
2019-05-12T02:18:17.811Z,64.64
2019-05-12T02:19:17.835Z,64.64
2019-05-12T02:20:18.079Z,64.54
2019-05-12T02:21:18.917Z,64.64
2019-05-12T02:22:18.847Z,64.43
2019-05-12T02:23:17.858Z,64.87
2019-05-12T02:24:26.824Z,64.87
2019-05-12T02:25:18.483Z,64.98
2019-05-12T02:26:18.763Z,64.98
2019-05-12T02:27:17.837Z,65.18
2019-05-12T02:28:18.005Z,65.08
2019-05-12T02:29:18.279Z,64.98
2019-05-12T02:30:19.240Z,64.77
2019-05-12T02:31:20.206Z,64.77
2019-05-12T02:32:16.461Z,65.18
2019-05-12T02:33:16.451Z,65.90
2019-05-12T02:34:16.444Z,64.67
2019-05-12T02:35:16.443Z,65.49
2019-05-12T02:36:16.442Z,65.18
2019-05-12T02:37:16.406Z,65.18
2019-05-12T02:38:16.395Z,65.08
2019-05-12T02:39:16.383Z,65.80
2019-05-12T02:40:16.371Z,64.98
2019-05-12T02:41:16.396Z,65.18
2019-05-12T02:42:16.351Z,65.18
2019-05-12T02:43:16.339Z,65.90
2019-05-12T02:44:16.327Z,65.69
2019-05-12T02:45:16.314Z,66.31
2019-05-12T02:46:16.310Z,66.51
2019-05-12T02:47:16.342Z,65.69
2019-05-12T02:48:16.281Z,66.41
2019-05-12T02:49:16.275Z,66.31
2019-05-12T02:50:16.260Z,66.20
2019-05-12T02:51:16.249Z,66.20
2019-05-12T02:52:16.275Z,66.61
2019-05-12T02:53:16.227Z,66.92
2019-05-12T02:54:16.215Z,66.41
2019-05-12T02:55:16.204Z,66.72
2019-05-12T02:56:16.194Z,66.51
2019-05-12T02:57:16.181Z,66.72
2019-05-12T02:58:16.211Z,66.72
2019-05-12T02:59:16.533Z,66.61
2019-05-12T03:00:16.308Z,66.64
2019-05-12T03:01:16.144Z,66.51
2019-05-12T03:02:16.126Z,66.75
2019-05-12T03:03:16.153Z,66.92
2019-05-12T03:04:16.103Z,66.72
2019-05-12T03:05:16.105Z,66.54
2019-05-12T03:06:16.082Z,66.64
2019-05-12T03:07:16.071Z,67.05
2019-05-12T03:08:16.061Z,66.82
2019-05-12T03:09:16.080Z,67.16
2019-05-12T03:10:16.038Z,67.05
2019-05-12T03:11:16.039Z,67.16
2019-05-12T03:12:16.015Z,67.36
2019-05-12T03:13:16.009Z,66.92
2019-05-12T03:14:16.151Z,67.02
2019-05-12T03:15:15.982Z,66.44
2019-05-12T03:16:15.973Z,66.61
2019-05-12T03:17:15.958Z,66.95
2019-05-12T03:18:15.949Z,66.92
2019-05-12T03:19:15.956Z,67.46
2019-05-12T03:20:15.951Z,67.16
2019-05-12T03:21:15.916Z,67.26
2019-05-12T03:22:15.905Z,67.16
2019-05-12T03:23:19.418Z,67.02
2019-05-12T03:24:17.637Z,67.57
2019-05-12T03:25:24.357Z,67.97
2019-05-12T03:26:16.859Z,67.74
2019-05-12T03:27:17.767Z,68.08
2019-05-12T03:28:16.237Z,68.18
2019-05-12T03:29:15.828Z,67.97
2019-05-12T03:30:19.202Z,68.08
2019-05-12T03:31:22.349Z,68.08
2019-05-12T03:32:18.041Z,68.08
2019-05-12T03:33:19.592Z,68.08
2019-05-12T03:34:19.729Z,68.08
2019-05-12T03:35:17.551Z,68.69
2019-05-12T03:36:17.789Z,68.49
2019-05-12T03:37:17.763Z,67.97
2019-05-12T03:38:15.725Z,67.87
2019-05-12T03:39:15.715Z,67.87
2019-05-12T03:40:15.706Z,68.38
2019-05-12T03:41:15.735Z,68.49
2019-05-12T03:42:15.681Z,67.87
2019-05-12T03:43:15.668Z,68.18
2019-05-12T03:44:15.660Z,67.87
2019-05-12T03:45:15.648Z,67.97
2019-05-12T03:46:15.640Z,67.97
2019-05-12T03:47:15.651Z,67.77
2019-05-12T03:48:15.618Z,67.97
2019-05-12T03:49:15.766Z,67.40
2019-05-12T03:50:15.598Z,67.49
2019-05-12T03:51:15.734Z,67.70
2019-05-12T03:52:15.613Z,67.77
2019-05-12T03:53:16.095Z,67.77
2019-05-12T03:54:15.685Z,67.70
2019-05-12T03:55:30.352Z,67.67
2019-05-12T03:56:16.523Z,67.77
2019-05-12T03:57:15.516Z,67.87
2019-05-12T03:58:15.622Z,67.16
2019-05-12T03:59:15.494Z,67.05
2019-05-12T04:00:16.039Z,66.54
2019-05-12T04:01:15.475Z,66.85
2019-05-12T04:02:15.461Z,66.85
2019-05-12T04:03:15.713Z,67.05
2019-05-12T04:04:15.628Z,67.46
2019-05-12T04:05:15.868Z,67.05
2019-05-12T04:06:15.760Z,66.95
2019-05-12T04:07:15.508Z,67.16
2019-05-12T04:08:16.148Z,66.85
2019-05-12T04:09:15.924Z,66.54
2019-05-12T04:10:15.937Z,66.88
2019-05-12T04:11:15.370Z,66.75
2019-05-12T04:12:15.348Z,66.54
2019-05-12T04:13:15.518Z,66.67
2019-05-12T04:14:15.351Z,66.88
2019-05-12T04:15:15.589Z,66.67
2019-05-12T04:16:16.388Z,66.78
2019-05-12T04:17:15.293Z,66.75
2019-05-12T04:18:16.301Z,66.85
2019-05-12T04:19:15.317Z,66.85
2019-05-12T04:20:15.566Z,66.44
2019-05-12T04:21:15.860Z,66.44
2019-05-12T04:22:15.587Z,66.37
2019-05-12T04:23:15.714Z,66.37
2019-05-12T04:24:15.215Z,66.44
2019-05-12T04:25:15.227Z,66.27
2019-05-12T04:26:16.966Z,66.24
2019-05-12T04:27:15.308Z,65.93
2019-05-12T04:28:15.404Z,65.21
2019-05-12T04:29:15.713Z,65.96
2019-05-12T04:30:15.177Z,65.62
2019-05-12T04:31:15.647Z,66.67
2019-05-12T04:32:15.129Z,66.16
2019-05-12T04:33:15.911Z,66.57
2019-05-12T04:34:18.988Z,66.98
2019-05-12T04:35:15.292Z,66.37
2019-05-12T04:36:15.221Z,66.27
2019-05-12T04:37:15.071Z,66.37
2019-05-12T04:38:15.377Z,66.16
2019-05-12T04:39:15.074Z,66.37
2019-05-12T04:40:15.204Z,66.37
2019-05-12T04:41:19.412Z,66.67
2019-05-12T04:42:15.119Z,66.57
2019-05-12T04:43:15.046Z,66.06
2019-05-12T04:44:15.536Z,66.27
2019-05-12T04:45:15.908Z,66.47
2019-05-12T04:46:15.011Z,66.37
2019-05-12T04:47:14.961Z,66.67
2019-05-12T04:48:18.205Z,66.67
2019-05-12T04:49:16.093Z,66.27
2019-05-12T04:50:15.778Z,66.27
2019-05-12T04:51:15.566Z,66.37
2019-05-12T04:52:15.684Z,66.27
2019-05-12T04:53:14.903Z,66.37
2019-05-12T04:54:15.465Z,66.37
2019-05-12T04:55:15.297Z,66.06
2019-05-12T04:56:19.815Z,66.78
2019-05-12T04:57:15.893Z,66.47
2019-05-12T04:58:15.943Z,66.44
2019-05-12T04:59:15.928Z,65.45
2019-05-12T05:00:16.104Z,65.55
2019-05-12T05:01:15.752Z,65.34
2019-05-12T05:02:15.479Z,65.04
2019-05-12T05:03:14.814Z,65.04
2019-05-12T05:04:15.677Z,64.83
2019-05-12T05:05:14.823Z,64.73
2019-05-12T05:06:15.106Z,64.94
2019-05-12T05:07:15.175Z,65.24
2019-05-12T05:08:19.451Z,65.14
2019-05-12T05:09:15.725Z,64.53
2019-05-12T05:10:14.817Z,64.62
2019-05-12T05:11:14.974Z,64.53
2019-05-12T05:12:14.690Z,64.53
2019-05-12T05:13:15.228Z,64.62
2019-05-12T05:14:14.674Z,64.32
2019-05-12T05:15:14.919Z,64.83
2019-05-12T05:16:14.651Z,64.53
2019-05-12T05:17:15.142Z,64.73
2019-05-12T05:18:14.625Z,64.83
2019-05-12T05:19:14.638Z,64.73
2019-05-12T05:20:14.603Z,64.53
2019-05-12T05:21:14.592Z,64.53
2019-05-12T05:22:14.602Z,64.62
2019-05-12T05:23:14.572Z,64.73
2019-05-12T05:24:14.596Z,64.83
2019-05-12T05:25:14.617Z,64.83
2019-05-12T05:26:24.345Z,65.75
2019-05-12T05:27:15.525Z,65.24
2019-05-12T05:28:14.847Z,65.14
2019-05-12T05:29:14.504Z,65.24
2019-05-12T05:30:14.518Z,65.24
2019-05-12T05:31:14.484Z,64.22
2019-05-12T05:32:14.472Z,64.53
2019-05-12T05:33:14.773Z,64.01
2019-05-12T05:34:15.022Z,63.40
2019-05-12T05:35:14.466Z,64.01
2019-05-12T05:36:19.610Z,64.53
2019-05-12T05:37:15.417Z,64.53
2019-05-12T05:38:18.630Z,64.62
2019-05-12T05:39:15.399Z,64.73
2019-05-12T05:40:14.411Z,64.32
2019-05-12T05:41:14.376Z,64.32
2019-05-12T05:42:14.365Z,64.73
2019-05-12T05:43:18.448Z,64.62
2019-05-12T05:44:14.343Z,64.62
2019-05-12T05:45:19.507Z,64.53
2019-05-12T05:46:15.319Z,64.62
2019-05-12T05:47:14.310Z,64.01
2019-05-12T05:48:14.299Z,64.62
2019-05-12T05:49:14.291Z,64.62
2019-05-12T05:50:18.370Z,64.83
2019-05-12T05:51:15.268Z,64.83
2019-05-12T05:52:14.258Z,64.53
2019-05-12T05:53:19.383Z,64.62
2019-05-12T05:54:15.234Z,64.22
2019-05-12T05:55:18.854Z,64.12
2019-05-12T05:56:18.181Z,64.32
2019-05-12T05:57:14.410Z,64.73
2019-05-12T05:58:15.435Z,63.09
2019-05-12T05:59:15.075Z,63.20
2019-05-12T06:00:22.855Z,62.99
2019-05-12T06:01:15.160Z,63.50
2019-05-12T06:02:14.148Z,62.99
2019-05-12T06:03:22.565Z,62.99
2019-05-12T06:04:15.125Z,63.70
2019-05-12T06:05:14.544Z,63.40
2019-05-12T06:06:15.324Z,63.20
2019-05-12T06:07:14.434Z,63.29
2019-05-12T06:08:16.280Z,63.40
2019-05-12T06:09:15.072Z,63.88
2019-05-12T06:10:14.580Z,64.70
2019-05-12T06:11:23.087Z,65.11
2019-05-12T06:12:15.039Z,64.90
2019-05-12T06:13:14.406Z,65.01
2019-05-12T06:14:16.160Z,64.60
2019-05-12T06:15:14.066Z,65.11
2019-05-12T06:16:20.752Z,65.31
2019-05-12T06:17:14.987Z,64.70
2019-05-12T06:18:13.976Z,64.60
2019-05-12T06:19:14.211Z,64.90
2019-05-12T06:20:13.978Z,64.80
2019-05-12T06:21:13.946Z,65.01
2019-05-12T06:22:18.118Z,64.90
2019-05-12T06:23:14.868Z,65.11
2019-05-12T06:24:19.630Z,65.52
2019-05-12T06:25:16.078Z,65.49
2019-05-12T06:26:14.192Z,64.36
2019-05-12T06:27:16.083Z,63.34
2019-05-12T06:28:14.866Z,63.24
2019-05-12T06:29:20.329Z,64.13
2019-05-12T06:30:14.981Z,63.10
2019-05-12T06:31:14.009Z,62.59
2019-05-12T06:32:14.232Z,63.41
2019-05-12T06:33:14.370Z,62.90
2019-05-12T06:34:20.365Z,62.87
2019-05-12T06:35:15.193Z,62.57
2019-05-12T06:36:21.765Z,62.66
2019-05-12T06:37:17.215Z,62.54
2019-05-12T06:38:13.758Z,62.87
2019-05-12T06:39:18.684Z,62.05
2019-05-12T06:40:14.757Z,61.75
2019-05-12T06:41:20.680Z,61.16
2019-05-12T06:42:17.027Z,61.54
2019-05-12T06:43:14.075Z,62.18
2019-05-12T06:44:17.256Z,62.59
2019-05-12T06:45:14.701Z,62.49
2019-05-12T06:46:20.293Z,62.18
2019-05-12T06:47:14.655Z,62.49
2019-05-12T06:48:14.150Z,62.90
2019-05-12T06:49:17.523Z,63.31
2019-05-12T06:50:14.598Z,62.90
2019-05-12T06:51:17.038Z,63.07
2019-05-12T06:52:14.600Z,63.07
2019-05-12T06:53:14.030Z,62.98
2019-05-12T06:54:15.065Z,63.39
2019-05-12T06:55:14.598Z,62.98
2019-05-12T06:56:15.457Z,62.84
2019-05-12T06:57:22.125Z,63.04
2019-05-12T06:58:14.533Z,62.36
2019-05-12T06:59:14.743Z,62.54
2019-05-12T07:00:14.599Z,63.04
2019-05-12T07:01:19.187Z,62.74
2019-05-12T07:02:14.488Z,63.35
2019-05-12T07:03:14.287Z,62.92
2019-05-12T07:04:14.146Z,62.63
2019-05-12T07:05:14.577Z,62.71
2019-05-12T07:06:17.483Z,62.63
2019-05-12T07:07:14.434Z,62.54
2019-05-12T07:08:17.913Z,63.02
2019-05-12T07:09:18.600Z,62.40
2019-05-12T07:10:35.089Z,62.30
2019-05-12T07:11:14.648Z,62.27
2019-05-12T07:12:13.807Z,61.90
2019-05-12T07:13:14.721Z,62.30
2019-05-12T07:14:22.473Z,62.40
2019-05-12T07:15:14.539Z,62.54
2019-05-12T07:16:19.197Z,63.15
2019-05-12T07:17:14.578Z,62.63
2019-05-12T07:18:14.752Z,62.43
2019-05-12T07:19:20.590Z,62.95
2019-05-12T07:20:14.795Z,62.43
2019-05-12T07:21:15.536Z,62.74
2019-05-12T07:22:21.936Z,62.33
2019-05-12T07:23:14.445Z,62.43
2019-05-12T07:24:14.231Z,62.61
2019-05-12T07:25:13.511Z,62.10
2019-05-12T07:26:19.147Z,62.30
2019-05-12T07:27:14.221Z,61.87
2019-05-12T07:28:14.422Z,61.87
2019-05-12T07:29:13.445Z,61.97
2019-05-12T07:30:13.749Z,60.74
2019-05-12T07:31:14.235Z,60.85
2019-05-12T07:32:16.274Z,60.23
2019-05-12T07:33:14.737Z,59.41
2019-05-12T07:34:13.666Z,59.21
2019-05-12T07:35:14.757Z,57.98
2019-05-12T07:36:13.813Z,58.60
2019-05-12T07:37:15.223Z,59.41
2019-05-12T07:38:20.990Z,59.21
2019-05-12T07:39:14.083Z,58.29
2019-05-12T07:40:13.725Z,58.09
2019-05-12T07:41:14.392Z,57.78
2019-05-12T07:42:13.428Z,56.96
2019-05-12T07:43:16.191Z,56.56
2019-05-12T07:44:14.315Z,56.25
2019-05-12T07:45:20.662Z,57.27
2019-05-12T07:46:14.021Z,56.35
2019-05-12T07:47:13.787Z,54.28
2019-05-12T07:48:13.861Z,53.67
2019-05-12T07:49:14.105Z,54.08
2019-05-12T07:50:18.338Z,54.08
2019-05-12T07:51:13.950Z,53.57
2019-05-12T07:52:13.755Z,53.64
2019-05-12T07:53:14.501Z,52.55
2019-05-12T07:54:14.241Z,52.34
2019-05-12T07:55:14.831Z,52.45
2019-05-12T07:56:14.424Z,52.65
2019-05-12T07:57:17.120Z,50.81
2019-05-12T07:58:15.557Z,52.04
2019-05-12T07:59:13.589Z,51.53
2019-05-12T08:00:21.321Z,52.04
2019-05-12T08:01:14.570Z,50.41
2019-05-12T08:02:14.250Z,50.81
2019-05-12T08:03:20.957Z,49.87
2019-05-12T08:04:13.817Z,49.77
2019-05-12T08:05:19.596Z,49.87
2019-05-12T08:06:14.325Z,49.26
2019-05-12T08:07:14.498Z,50.15
2019-05-12T08:08:14.515Z,49.54
2019-05-12T08:09:13.590Z,49.34
2019-05-12T08:10:17.729Z,48.63
2019-05-12T08:11:14.896Z,49.01
2019-05-12T08:12:19.467Z,48.30
2019-05-12T08:13:14.814Z,48.91
2019-05-12T08:14:24.692Z,50.03
2019-05-12T08:15:14.220Z,49.62
2019-05-12T08:16:14.241Z,49.50
2019-05-12T08:17:16.867Z,48.89
2019-05-12T08:18:14.102Z,48.27
2019-05-12T08:19:17.158Z,46.24
2019-05-12T08:20:13.707Z,47.87
2019-05-12T08:21:13.987Z,48.27
2019-05-12T08:22:13.572Z,48.81
2019-05-12T08:23:14.101Z,48.89
2019-05-12T08:24:14.286Z,48.99
2019-05-12T08:25:13.398Z,48.89
2019-05-12T08:26:18.293Z,48.48
2019-05-12T08:27:14.305Z,48.07
2019-05-12T08:28:18.296Z,49.07
2019-05-12T08:29:17.148Z,47.95
2019-05-12T08:30:13.939Z,48.13
2019-05-12T08:31:14.050Z,47.42
2019-05-12T08:32:15.924Z,46.22
2019-05-12T08:33:14.728Z,46.70
2019-05-12T08:34:13.654Z,46.83
2019-05-12T08:35:13.950Z,46.20
2019-05-12T08:36:15.966Z,47.42
2019-05-12T08:37:13.931Z,47.92
2019-05-12T08:38:14.533Z,48.21
2019-05-12T08:39:21.317Z,47.92
2019-05-12T08:40:15.525Z,48.54
2019-05-12T08:41:14.539Z,48.13
2019-05-12T08:42:14.529Z,48.23
2019-05-12T08:43:14.624Z,48.03
2019-05-12T08:44:13.559Z,48.23
2019-05-12T08:45:15.309Z,47.11
2019-05-12T08:46:15.570Z,45.15
2019-05-12T08:47:15.030Z,45.68
2019-05-12T08:48:16.951Z,45.68
2019-05-12T08:49:14.334Z,45.46
2019-05-12T08:50:13.674Z,45.76
2019-05-12T08:51:16.761Z,45.56
2019-05-12T08:52:14.211Z,46.58
2019-05-12T08:53:21.260Z,45.46
2019-05-12T08:54:14.199Z,44.95
2019-05-12T08:55:16.618Z,44.32
2019-05-12T08:56:18.672Z,44.12
2019-05-12T08:57:14.337Z,43.61
2019-05-12T08:58:26.544Z,45.14
2019-05-12T08:59:17.498Z,44.22
2019-05-12T09:00:13.503Z,41.99
2019-05-12T09:01:13.818Z,43.53
2019-05-12T09:02:13.992Z,43.84
2019-05-12T09:03:14.110Z,43.51
2019-05-12T09:04:17.953Z,43.30
2019-05-12T09:05:14.421Z,42.80
2019-05-12T09:06:15.639Z,42.68
2019-05-12T09:07:13.842Z,42.37
2019-05-12T09:08:13.767Z,42.47
2019-05-12T09:09:13.954Z,42.47
2019-05-12T09:10:14.172Z,42.77
2019-05-12T09:11:13.928Z,42.47
2019-05-12T09:12:14.036Z,42.98
2019-05-12T09:13:14.196Z,42.68
2019-05-12T09:14:14.438Z,43.08
2019-05-12T09:15:13.607Z,41.86
2019-05-12T09:16:13.858Z,42.05
2019-05-12T09:17:13.801Z,41.05
2019-05-12T09:18:14.223Z,41.54
2019-05-12T09:19:16.675Z,41.64
2019-05-12T09:20:13.684Z,39.71
2019-05-12T09:21:13.896Z,40.01
2019-05-12T09:22:16.836Z,40.32
2019-05-12T09:23:13.632Z,39.81
2019-05-12T09:24:13.627Z,40.83
2019-05-12T09:25:14.401Z,41.31
2019-05-12T09:26:13.503Z,42.84
2019-05-12T09:27:13.597Z,41.93
2019-05-12T09:28:13.780Z,40.61
2019-05-12T09:29:13.808Z,40.70
2019-05-12T09:30:14.012Z,40.61
2019-05-12T09:31:13.971Z,40.91
2019-05-12T09:32:14.337Z,40.50
2019-05-12T09:33:13.860Z,39.59
2019-05-12T09:34:14.147Z,39.39
2019-05-12T09:35:14.210Z,38.79
2019-05-12T09:36:19.687Z,38.79
2019-05-12T09:37:14.231Z,39.10
2019-05-12T09:39:14.173Z,39.30
2019-05-12T09:40:11.775Z,40.01
2019-05-12T09:41:13.884Z,39.71
2019-05-12T09:42:14.132Z,39.81
2019-05-12T09:43:13.684Z,40.42
2019-05-12T09:44:13.372Z,40.42
2019-05-12T09:45:13.821Z,40.52
2019-05-12T09:46:11.733Z,40.32
2019-05-12T09:47:21.977Z,41.01
2019-05-12T09:48:14.083Z,40.61
2019-05-12T09:49:11.652Z,39.79
2019-05-12T09:50:18.213Z,40.20
2019-05-12T09:51:13.415Z,38.27
2019-05-12T09:52:14.060Z,37.44
2019-05-12T09:53:14.411Z,38.27
2019-05-12T09:54:13.389Z,38.07
2019-05-12T09:55:11.615Z,38.27
2019-05-12T09:56:13.638Z,37.96
2019-05-12T09:57:13.590Z,38.27
2019-05-12T09:58:14.092Z,39.08
2019-05-12T09:59:20.798Z,39.39
2019-05-12T10:00:13.746Z,39.49
2019-05-12T10:01:13.770Z,39.49
2019-05-12T10:02:18.552Z,39.69
2019-05-12T10:03:13.932Z,39.69
2019-05-12T10:04:16.172Z,40.00
2019-05-12T10:05:14.424Z,39.79
2019-05-12T10:06:16.762Z,38.17
2019-05-12T10:07:14.091Z,38.45
2019-05-12T10:08:13.668Z,37.44
2019-05-12T10:09:15.430Z,37.74
2019-05-12T10:10:14.126Z,37.54
2019-05-12T10:11:16.532Z,38.57
2019-05-12T10:12:13.588Z,38.37
2019-05-12T10:13:13.664Z,38.07
2019-05-12T10:14:11.375Z,38.78
2019-05-12T10:15:13.546Z,38.98
2019-05-12T10:16:13.327Z,38.45
2019-05-12T10:17:11.344Z,38.45
2019-05-12T10:18:11.536Z,38.76
2019-05-12T10:19:11.321Z,38.25
2019-05-12T10:20:13.521Z,38.76
2019-05-12T10:21:15.531Z,39.15
2019-05-12T10:22:12.314Z,38.76
2019-05-12T10:23:18.607Z,38.56
2019-05-12T10:24:12.266Z,38.25
2019-05-12T10:25:11.282Z,39.06
2019-05-12T10:26:12.290Z,38.45
2019-05-12T10:27:11.234Z,38.96
2019-05-12T10:28:13.008Z,38.95
2019-05-12T10:29:17.560Z,39.04
2019-05-12T10:30:16.689Z,39.23
2019-05-12T10:31:13.635Z,39.55
2019-05-12T10:32:13.247Z,38.21
2019-05-12T10:33:11.167Z,38.32
2019-05-12T10:34:11.161Z,38.01
2019-05-12T10:35:12.556Z,38.01
2019-05-12T10:36:12.136Z,36.88
2019-05-12T10:37:13.218Z,36.19
2019-05-12T10:38:13.454Z,37.40
2019-05-12T10:39:11.103Z,37.10
2019-05-12T10:40:11.119Z,44.70
2019-05-12T10:41:12.994Z,40.63
2019-05-12T10:42:11.073Z,44.24
2019-05-12T10:43:11.082Z,40.06
2019-05-12T10:44:11.048Z,39.14
2019-05-12T10:45:18.940Z,39.62
2019-05-12T10:46:13.212Z,36.49
2019-05-12T10:47:13.370Z,35.99
2019-05-12T10:48:11.007Z,36.49
2019-05-12T10:49:10.995Z,36.59
2019-05-12T10:50:11.008Z,36.99
2019-05-12T10:51:10.972Z,38.59
2019-05-12T10:52:10.961Z,41.71
2019-05-12T10:53:15.778Z,40.30
2019-05-12T10:54:15.411Z,38.35
2019-05-12T10:55:10.951Z,39.83
2019-05-12T10:56:10.916Z,37.41
2019-05-12T10:57:10.909Z,34.89
2019-05-12T10:58:10.894Z,35.28
2019-05-12T10:59:13.218Z,35.08
2019-05-12T11:00:10.901Z,35.80
2019-05-12T11:01:10.864Z,36.91
2019-05-12T11:02:10.852Z,35.28
2019-05-12T11:03:14.639Z,36.91
2019-05-12T11:04:14.168Z,34.77
2019-05-12T11:05:12.385Z,35.30
2019-05-12T11:06:11.805Z,35.10
2019-05-12T11:07:10.797Z,34.99
2019-05-12T11:08:11.368Z,35.10
2019-05-12T11:09:10.773Z,35.21
2019-05-12T11:10:16.512Z,35.01
2019-05-12T11:11:13.605Z,37.21
2019-05-12T11:12:10.741Z,33.97
2019-05-12T11:13:10.732Z,33.36
2019-05-12T11:14:10.719Z,33.75
2019-05-12T11:15:10.731Z,33.51
2019-05-12T11:16:13.905Z,31.37
2019-05-12T11:17:10.685Z,32.36
2019-05-12T11:18:10.689Z,32.17
2019-05-12T11:19:10.830Z,31.26
2019-05-12T11:20:10.687Z,33.23
2019-05-12T11:21:10.641Z,31.73
2019-05-12T11:22:10.632Z,32.09
2019-05-12T11:23:10.619Z,29.16
2019-05-12T11:24:10.655Z,30.77
2019-05-12T11:25:10.626Z,29.35
2019-05-12T11:26:10.588Z,28.46
2019-05-12T11:27:10.576Z,28.85
2019-05-12T11:28:10.568Z,29.53
2019-05-12T11:29:10.555Z,28.81
2019-05-12T11:30:10.570Z,28.69
2019-05-12T11:31:10.535Z,28.47
2019-05-12T11:32:10.528Z,26.46
2019-05-12T11:33:10.514Z,26.07
2019-05-12T11:34:10.502Z,26.18
2019-05-12T11:35:10.515Z,27.47
2019-05-12T11:36:10.480Z,26.56
2019-05-12T11:37:10.481Z,27.53
2019-05-12T11:38:10.457Z,26.82
2019-05-12T11:39:10.445Z,26.89
2019-05-12T11:40:10.460Z,27.67
2019-05-12T11:41:16.238Z,28.67
2019-05-12T11:42:13.256Z,26.45
2019-05-12T11:43:10.402Z,26.34
2019-05-12T11:44:10.390Z,25.93
2019-05-12T11:45:10.409Z,24.43
2019-05-12T11:46:10.369Z,23.04
2019-05-12T11:47:14.750Z,22.73
2019-05-12T11:48:11.347Z,23.82
2019-05-12T11:49:10.343Z,23.52
2019-05-12T11:50:10.365Z,23.70
2019-05-12T11:51:10.317Z,22.81
2019-05-12T11:52:16.030Z,23.52
2019-05-12T11:53:13.588Z,23.41
2019-05-12T11:54:10.881Z,24.82
2019-05-12T11:55:10.317Z,24.80
2019-05-12T11:56:10.263Z,23.22
2019-05-12T11:57:10.251Z,25.49
2019-05-12T11:58:11.686Z,24.99
2019-05-12T11:59:10.230Z,23.00
2019-05-12T12:00:10.244Z,21.83
2019-05-12T12:01:10.207Z,23.33
2019-05-12T12:02:10.197Z,24.72
2019-05-12T12:03:17.996Z,24.21
2019-05-12T12:04:11.178Z,22.55
2019-05-12T12:05:10.194Z,24.69
2019-05-12T12:06:10.159Z,26.27
2019-05-12T12:07:10.146Z,23.66
2019-05-12T12:08:10.134Z,23.64
2019-05-12T12:09:17.051Z,23.13
2019-05-12T12:10:11.255Z,23.52
2019-05-12T12:11:10.578Z,22.22
2019-05-12T12:12:13.070Z,22.11
2019-05-12T12:13:10.081Z,21.91
2019-05-12T12:14:10.605Z,22.11
2019-05-12T12:15:10.086Z,21.91
2019-05-12T12:16:11.440Z,22.09
2019-05-12T12:17:10.038Z,22.09
2019-05-12T12:18:15.262Z,22.05
2019-05-12T12:19:11.016Z,23.15
2019-05-12T12:20:13.915Z,21.94
2019-05-12T12:21:10.993Z,20.36
2019-05-12T12:22:09.985Z,21.14
2019-05-12T12:23:11.265Z,19.94
2019-05-12T12:24:09.968Z,19.93
2019-05-12T12:25:11.238Z,19.32
2019-05-12T12:26:09.942Z,19.20
2019-05-12T12:27:09.930Z,18.79
2019-05-12T12:28:09.929Z,19.27
2019-05-12T12:29:09.913Z,19.07
2019-05-12T12:30:16.786Z,18.88
2019-05-12T12:31:13.093Z,18.88
2019-05-12T12:32:15.824Z,19.09
2019-05-12T12:33:10.868Z,19.17
2019-05-12T12:34:09.858Z,18.18
2019-05-12T12:35:14.409Z,18.10
2019-05-12T12:36:10.837Z,19.28
2019-05-12T12:37:09.834Z,18.39
2019-05-12T12:38:09.816Z,17.98
2019-05-12T12:39:09.807Z,17.58
2019-05-12T12:40:09.819Z,17.87
2019-05-12T12:41:09.786Z,17.87
2019-05-12T12:42:09.775Z,17.47
2019-05-12T12:43:09.763Z,17.36
2019-05-12T12:44:09.755Z,17.94
2019-05-12T12:45:09.770Z,17.55
2019-05-12T12:46:10.738Z,17.27
2019-05-12T12:47:10.722Z,17.57
2019-05-12T12:48:09.712Z,18.66
2019-05-12T12:49:10.504Z,18.07
2019-05-12T12:50:09.716Z,17.88
2019-05-12T12:51:09.679Z,17.78
2019-05-12T12:52:09.670Z,17.78
2019-05-12T12:53:09.660Z,18.07